sensor_id;sensor_type;location;lat;lon;timestamp;P1;durP1;ratioP1;P2;durP2;ratioP2
26080;SDS011;13991;51.174;4.438;2022-08-19T00:00:29;51.37;;;30.07;;
26080;SDS011;13991;51.174;4.438;2022-08-19T00:02:55;55.50;;;32.77;;
26080;SDS011;13991;51.174;4.438;2022-08-19T00:05:21;59.47;;;32.87;;
26080;SDS011;13991;51.174;4.438;2022-08-19T00:07:47;54.73;;;32.87;;
26080;SDS011;13991;51.174;4.438;2022-08-19T00:10:14;63.20;;;34.27;;
26080;SDS011;13991;51.174;4.438;2022-08-19T00:12:41;51.67;;;33.40;;
26080;SDS011;13991;51.174;4.438;2022-08-19T00:15:08;57.37;;;33.07;;
26080;SDS011;13991;51.174;4.438;2022-08-19T00:17:40;63.87;;;34.63;;
26080;SDS011;13991;51.174;4.438;2022-08-19T00:20:10;58.53;;;31.57;;
26080;SDS011;13991;51.174;4.438;2022-08-19T00:22:37;55.30;;;33.57;;
26080;SDS011;13991;51.174;4.438;2022-08-19T00:25:04;65.07;;;34.97;;
26080;SDS011;13991;51.174;4.438;2022-08-19T00:27:30;59.60;;;33.47;;
26080;SDS011;13991;51.174;4.438;2022-08-19T00:29:56;59.37;;;33.73;;
26080;SDS011;13991;51.174;4.438;2022-08-19T00:32:23;58.73;;;34.17;;
26080;SDS011;13991;51.174;4.438;2022-08-19T00:34:50;66.23;;;36.87;;
26080;SDS011;13991;51.174;4.438;2022-08-19T00:37:17;67.77;;;38.23;;
26080;SDS011;13991;51.174;4.438;2022-08-19T00:39:44;64.73;;;36.17;;
26080;SDS011;13991;51.174;4.438;2022-08-19T00:42:10;79.83;;;41.20;;
26080;SDS011;13991;51.174;4.438;2022-08-19T00:44:35;77.63;;;42.87;;
26080;SDS011;13991;51.174;4.438;2022-08-19T00:47:01;75.20;;;42.73;;
26080;SDS011;13991;51.174;4.438;2022-08-19T00:49:31;72.30;;;40.07;;
26080;SDS011;13991;51.174;4.438;2022-08-19T00:52:04;71.03;;;38.90;;
26080;SDS011;13991;51.174;4.438;2022-08-19T00:54:33;72.53;;;39.33;;
26080;SDS011;13991;51.174;4.438;2022-08-19T00:57:03;70.80;;;39.63;;
26080;SDS011;13991;51.174;4.438;2022-08-19T00:59:33;67.90;;;36.83;;
26080;SDS011;13991;51.174;4.438;2022-08-19T01:02:01;60.17;;;36.93;;
26080;SDS011;13991;51.174;4.438;2022-08-19T01:04:28;62.13;;;36.10;;
26080;SDS011;13991;51.174;4.438;2022-08-19T01:06:53;63.60;;;37.73;;
26080;SDS011;13991;51.174;4.438;2022-08-19T01:09:21;57.27;;;34.10;;
26080;SDS011;13991;51.174;4.438;2022-08-19T01:11:46;63.67;;;35.47;;
26080;SDS011;13991;51.174;4.438;2022-08-19T01:14:12;60.17;;;34.87;;
26080;SDS011;13991;51.174;4.438;2022-08-19T01:16:39;56.93;;;33.50;;
26080;SDS011;13991;51.174;4.438;2022-08-19T01:19:14;58.43;;;35.30;;
26080;SDS011;13991;51.174;4.438;2022-08-19T01:21:47;61.77;;;34.03;;
26080;SDS011;13991;51.174;4.438;2022-08-19T01:24:22;62.97;;;35.03;;
26080;SDS011;13991;51.174;4.438;2022-08-19T01:26:48;66.20;;;37.17;;
26080;SDS011;13991;51.174;4.438;2022-08-19T01:29:14;60.93;;;35.33;;
26080;SDS011;13991;51.174;4.438;2022-08-19T01:31:39;65.03;;;37.37;;
26080;SDS011;13991;51.174;4.438;2022-08-19T01:34:05;65.63;;;34.67;;
26080;SDS011;13991;51.174;4.438;2022-08-19T01:36:36;64.73;;;34.93;;
26080;SDS011;13991;51.174;4.438;2022-08-19T01:39:05;63.10;;;34.40;;
26080;SDS011;13991;51.174;4.438;2022-08-19T01:41:33;62.63;;;34.20;;
26080;SDS011;13991;51.174;4.438;2022-08-19T01:43:59;64.40;;;34.40;;
26080;SDS011;13991;51.174;4.438;2022-08-19T01:46:28;57.27;;;33.33;;
26080;SDS011;13991;51.174;4.438;2022-08-19T01:48:55;57.17;;;32.93;;
26080;SDS011;13991;51.174;4.438;2022-08-19T01:51:21;56.03;;;33.40;;
26080;SDS011;13991;51.174;4.438;2022-08-19T01:53:48;75.00;;;34.57;;
26080;SDS011;13991;51.174;4.438;2022-08-19T01:56:15;61.50;;;33.20;;
26080;SDS011;13991;51.174;4.438;2022-08-19T01:58:43;65.50;;;33.80;;
26080;SDS011;13991;51.174;4.438;2022-08-19T02:01:14;60.03;;;34.40;;
26080;SDS011;13991;51.174;4.438;2022-08-19T02:03:40;67.30;;;35.97;;
26080;SDS011;13991;51.174;4.438;2022-08-19T02:06:06;69.87;;;36.53;;
26080;SDS011;13991;51.174;4.438;2022-08-19T02:08:33;65.60;;;33.67;;
26080;SDS011;13991;51.174;4.438;2022-08-19T02:11:01;66.70;;;37.13;;
26080;SDS011;13991;51.174;4.438;2022-08-19T02:13:28;63.00;;;36.13;;
26080;SDS011;13991;51.174;4.438;2022-08-19T02:15:54;66.37;;;36.83;;
26080;SDS011;13991;51.174;4.438;2022-08-19T02:18:20;74.13;;;36.10;;
26080;SDS011;13991;51.174;4.438;2022-08-19T02:20:45;66.73;;;37.30;;
26080;SDS011;13991;51.174;4.438;2022-08-19T02:23:12;65.20;;;35.87;;
26080;SDS011;13991;51.174;4.438;2022-08-19T02:25:39;66.17;;;35.97;;
26080;SDS011;13991;51.174;4.438;2022-08-19T02:28:05;76.77;;;38.30;;
26080;SDS011;13991;51.174;4.438;2022-08-19T02:30:31;59.53;;;34.83;;
26080;SDS011;13991;51.174;4.438;2022-08-19T02:32:57;63.57;;;35.13;;
26080;SDS011;13991;51.174;4.438;2022-08-19T02:35:23;68.17;;;37.43;;
26080;SDS011;13991;51.174;4.438;2022-08-19T02:37:48;69.67;;;35.00;;
26080;SDS011;13991;51.174;4.438;2022-08-19T02:40:34;71.37;;;38.13;;
26080;SDS011;13991;51.174;4.438;2022-08-19T02:43:01;68.87;;;37.57;;
26080;SDS011;13991;51.174;4.438;2022-08-19T02:45:33;74.47;;;39.23;;
26080;SDS011;13991;51.174;4.438;2022-08-19T02:48:02;68.03;;;35.97;;
26080;SDS011;13991;51.174;4.438;2022-08-19T02:50:29;71.20;;;39.67;;
26080;SDS011;13991;51.174;4.438;2022-08-19T02:52:56;73.13;;;38.80;;
26080;SDS011;13991;51.174;4.438;2022-08-19T02:55:22;80.90;;;40.40;;
26080;SDS011;13991;51.174;4.438;2022-08-19T02:57:48;71.67;;;36.53;;
26080;SDS011;13991;51.174;4.438;2022-08-19T03:00:14;74.97;;;37.17;;
26080;SDS011;13991;51.174;4.438;2022-08-19T03:02:40;68.57;;;36.77;;
26080;SDS011;13991;51.174;4.438;2022-08-19T03:05:06;77.53;;;36.77;;
26080;SDS011;13991;51.174;4.438;2022-08-19T03:07:34;66.87;;;36.80;;
26080;SDS011;13991;51.174;4.438;2022-08-19T03:10:00;77.87;;;38.53;;
26080;SDS011;13991;51.174;4.438;2022-08-19T03:12:25;69.40;;;37.23;;
26080;SDS011;13991;51.174;4.438;2022-08-19T03:14:51;72.50;;;38.10;;
26080;SDS011;13991;51.174;4.438;2022-08-19T03:17:17;68.27;;;36.93;;
26080;SDS011;13991;51.174;4.438;2022-08-19T03:19:43;71.93;;;36.47;;
26080;SDS011;13991;51.174;4.438;2022-08-19T03:22:09;80.90;;;37.47;;
26080;SDS011;13991;51.174;4.438;2022-08-19T03:24:35;76.30;;;38.33;;
26080;SDS011;13991;51.174;4.438;2022-08-19T03:27:00;73.90;;;35.83;;
26080;SDS011;13991;51.174;4.438;2022-08-19T03:29:30;65.90;;;36.27;;
26080;SDS011;13991;51.174;4.438;2022-08-19T03:32:00;64.13;;;34.60;;
26080;SDS011;13991;51.174;4.438;2022-08-19T03:34:28;61.30;;;33.50;;
26080;SDS011;13991;51.174;4.438;2022-08-19T03:36:56;66.47;;;31.77;;
26080;SDS011;13991;51.174;4.438;2022-08-19T03:39:24;68.70;;;34.00;;
26080;SDS011;13991;51.174;4.438;2022-08-19T03:41:51;69.30;;;33.37;;
26080;SDS011;13991;51.174;4.438;2022-08-19T03:44:18;64.40;;;31.63;;
26080;SDS011;13991;51.174;4.438;2022-08-19T03:46:47;67.17;;;31.90;;
26080;SDS011;13991;51.174;4.438;2022-08-19T03:49:15;59.17;;;28.63;;
26080;SDS011;13991;51.174;4.438;2022-08-19T03:51:42;66.30;;;31.30;;
26080;SDS011;13991;51.174;4.438;2022-08-19T03:54:10;59.03;;;28.93;;
26080;SDS011;13991;51.174;4.438;2022-08-19T03:56:38;52.20;;;27.47;;
26080;SDS011;13991;51.174;4.438;2022-08-19T03:59:06;63.10;;;28.97;;
26080;SDS011;13991;51.174;4.438;2022-08-19T04:01:34;53.57;;;28.10;;
26080;SDS011;13991;51.174;4.438;2022-08-19T04:04:01;68.37;;;28.73;;
26080;SDS011;13991;51.174;4.438;2022-08-19T04:06:27;57.73;;;26.67;;
26080;SDS011;13991;51.174;4.438;2022-08-19T04:08:56;63.13;;;27.67;;
26080;SDS011;13991;51.174;4.438;2022-08-19T04:11:27;56.10;;;25.83;;
26080;SDS011;13991;51.174;4.438;2022-08-19T04:13:56;55.77;;;27.63;;
26080;SDS011;13991;51.174;4.438;2022-08-19T04:16:22;58.47;;;28.40;;
26080;SDS011;13991;51.174;4.438;2022-08-19T04:18:50;52.30;;;26.63;;
26080;SDS011;13991;51.174;4.438;2022-08-19T04:21:20;55.40;;;25.97;;
26080;SDS011;13991;51.174;4.438;2022-08-19T04:23:47;55.17;;;26.57;;
26080;SDS011;13991;51.174;4.438;2022-08-19T04:26:14;53.17;;;25.97;;
26080;SDS011;13991;51.174;4.438;2022-08-19T04:28:42;55.53;;;24.80;;
26080;SDS011;13991;51.174;4.438;2022-08-19T04:31:12;57.27;;;26.67;;
26080;SDS011;13991;51.174;4.438;2022-08-19T04:33:43;54.30;;;24.83;;
26080;SDS011;13991;51.174;4.438;2022-08-19T04:36:15;57.90;;;24.63;;
26080;SDS011;13991;51.174;4.438;2022-08-19T04:38:44;43.90;;;23.50;;
26080;SDS011;13991;51.174;4.438;2022-08-19T04:41:10;55.70;;;24.90;;
26080;SDS011;13991;51.174;4.438;2022-08-19T04:43:53;54.27;;;22.97;;
26080;SDS011;13991;51.174;4.438;2022-08-19T04:46:19;52.67;;;24.60;;
26080;SDS011;13991;51.174;4.438;2022-08-19T04:48:45;49.20;;;24.00;;
26080;SDS011;13991;51.174;4.438;2022-08-19T04:51:11;54.07;;;23.27;;
26080;SDS011;13991;51.174;4.438;2022-08-19T04:53:38;54.63;;;23.83;;
26080;SDS011;13991;51.174;4.438;2022-08-19T04:56:10;50.07;;;22.77;;
26080;SDS011;13991;51.174;4.438;2022-08-19T04:58:39;51.03;;;22.77;;
26080;SDS011;13991;51.174;4.438;2022-08-19T05:01:08;43.00;;;21.60;;
26080;SDS011;13991;51.174;4.438;2022-08-19T05:03:36;52.93;;;23.30;;
26080;SDS011;13991;51.174;4.438;2022-08-19T05:06:10;47.47;;;22.13;;
26080;SDS011;13991;51.174;4.438;2022-08-19T05:08:39;58.83;;;23.23;;
26080;SDS011;13991;51.174;4.438;2022-08-19T05:11:16;54.80;;;21.10;;
26080;SDS011;13991;51.174;4.438;2022-08-19T05:13:45;48.17;;;19.50;;
26080;SDS011;13991;51.174;4.438;2022-08-19T05:16:12;42.03;;;20.63;;
26080;SDS011;13991;51.174;4.438;2022-08-19T05:18:38;48.20;;;19.60;;
26080;SDS011;13991;51.174;4.438;2022-08-19T05:21:23;41.13;;;19.67;;
26080;SDS011;13991;51.174;4.438;2022-08-19T05:24:08;41.43;;;20.33;;
26080;SDS011;13991;51.174;4.438;2022-08-19T05:26:38;44.50;;;19.27;;
26080;SDS011;13991;51.174;4.438;2022-08-19T05:29:11;40.63;;;18.53;;
26080;SDS011;13991;51.174;4.438;2022-08-19T05:31:38;53.60;;;19.53;;
26080;SDS011;13991;51.174;4.438;2022-08-19T05:34:04;48.37;;;20.97;;
26080;SDS011;13991;51.174;4.438;2022-08-19T05:36:33;50.80;;;21.03;;
26080;SDS011;13991;51.174;4.438;2022-08-19T05:39:08;52.23;;;20.23;;
26080;SDS011;13991;51.174;4.438;2022-08-19T05:41:41;49.07;;;19.83;;
26080;SDS011;13991;51.174;4.438;2022-08-19T05:44:11;46.50;;;19.70;;
26080;SDS011;13991;51.174;4.438;2022-08-19T05:46:37;44.90;;;19.20;;
26080;SDS011;13991;51.174;4.438;2022-08-19T05:49:07;45.23;;;18.73;;
26080;SDS011;13991;51.174;4.438;2022-08-19T05:51:33;45.73;;;18.40;;
26080;SDS011;13991;51.174;4.438;2022-08-19T05:54:02;48.43;;;17.53;;
26080;SDS011;13991;51.174;4.438;2022-08-19T05:56:29;40.53;;;17.07;;
26080;SDS011;13991;51.174;4.438;2022-08-19T05:58:55;44.30;;;16.80;;
26080;SDS011;13991;51.174;4.438;2022-08-19T06:01:23;41.27;;;17.80;;
26080;SDS011;13991;51.174;4.438;2022-08-19T06:03:49;38.10;;;15.33;;
26080;SDS011;13991;51.174;4.438;2022-08-19T06:06:16;35.40;;;15.80;;
26080;SDS011;13991;51.174;4.438;2022-08-19T06:08:43;28.80;;;15.70;;
26080;SDS011;13991;51.174;4.438;2022-08-19T06:11:22;35.00;;;15.83;;
26080;SDS011;13991;51.174;4.438;2022-08-19T06:14:00;35.60;;;15.00;;
26080;SDS011;13991;51.174;4.438;2022-08-19T06:16:29;40.50;;;14.63;;
26080;SDS011;13991;51.174;4.438;2022-08-19T06:18:57;44.23;;;15.77;;
26080;SDS011;13991;51.174;4.438;2022-08-19T06:21:25;51.60;;;15.23;;
26080;SDS011;13991;51.174;4.438;2022-08-19T06:23:54;32.43;;;14.20;;
26080;SDS011;13991;51.174;4.438;2022-08-19T06:26:21;29.93;;;14.00;;
26080;SDS011;13991;51.174;4.438;2022-08-19T06:28:47;34.03;;;14.10;;
26080;SDS011;13991;51.174;4.438;2022-08-19T06:31:14;36.53;;;14.63;;
26080;SDS011;13991;51.174;4.438;2022-08-19T06:33:41;35.67;;;14.33;;
26080;SDS011;13991;51.174;4.438;2022-08-19T06:36:15;43.23;;;14.23;;
26080;SDS011;13991;51.174;4.438;2022-08-19T06:38:42;51.23;;;15.50;;
26080;SDS011;13991;51.174;4.438;2022-08-19T06:41:08;51.20;;;18.27;;
26080;SDS011;13991;51.174;4.438;2022-08-19T06:43:35;47.17;;;14.90;;
26080;SDS011;13991;51.174;4.438;2022-08-19T06:46:01;34.00;;;14.83;;
26080;SDS011;13991;51.174;4.438;2022-08-19T06:48:28;42.07;;;15.23;;
26080;SDS011;13991;51.174;4.438;2022-08-19T06:50:54;35.83;;;14.67;;
26080;SDS011;13991;51.174;4.438;2022-08-19T06:53:20;42.17;;;15.70;;
26080;SDS011;13991;51.174;4.438;2022-08-19T06:55:46;43.50;;;15.67;;
26080;SDS011;13991;51.174;4.438;2022-08-19T06:58:12;38.77;;;14.60;;
26080;SDS011;13991;51.174;4.438;2022-08-19T07:00:39;36.20;;;14.57;;
26080;SDS011;13991;51.174;4.438;2022-08-19T07:03:04;47.10;;;15.50;;
26080;SDS011;13991;51.174;4.438;2022-08-19T07:05:30;50.13;;;16.37;;
26080;SDS011;13991;51.174;4.438;2022-08-19T07:07:56;30.33;;;14.37;;
26080;SDS011;13991;51.174;4.438;2022-08-19T07:10:22;40.20;;;14.63;;
26080;SDS011;13991;51.174;4.438;2022-08-19T07:12:49;35.73;;;14.73;;
26080;SDS011;13991;51.174;4.438;2022-08-19T07:15:22;41.77;;;15.80;;
26080;SDS011;13991;51.174;4.438;2022-08-19T07:17:48;33.93;;;14.53;;
26080;SDS011;13991;51.174;4.438;2022-08-19T07:20:16;41.00;;;14.37;;
26080;SDS011;13991;51.174;4.438;2022-08-19T07:22:46;37.33;;;15.37;;
26080;SDS011;13991;51.174;4.438;2022-08-19T07:25:16;36.07;;;14.23;;
26080;SDS011;13991;51.174;4.438;2022-08-19T07:27:53;40.20;;;13.87;;
26080;SDS011;13991;51.174;4.438;2022-08-19T07:30:24;28.97;;;14.80;;
26080;SDS011;13991;51.174;4.438;2022-08-19T07:32:55;34.50;;;13.50;;
26080;SDS011;13991;51.174;4.438;2022-08-19T07:35:21;38.73;;;14.53;;
26080;SDS011;13991;51.174;4.438;2022-08-19T07:37:48;29.77;;;14.27;;
26080;SDS011;13991;51.174;4.438;2022-08-19T07:40:17;41.77;;;15.07;;
26080;SDS011;13991;51.174;4.438;2022-08-19T07:42:52;31.57;;;13.70;;
26080;SDS011;13991;51.174;4.438;2022-08-19T07:45:18;37.33;;;13.77;;
26080;SDS011;13991;51.174;4.438;2022-08-19T07:47:51;33.87;;;15.53;;
26080;SDS011;13991;51.174;4.438;2022-08-19T07:50:19;31.77;;;13.43;;
26080;SDS011;13991;51.174;4.438;2022-08-19T07:52:48;38.10;;;13.63;;
26080;SDS011;13991;51.174;4.438;2022-08-19T07:55:15;31.97;;;13.97;;
26080;SDS011;13991;51.174;4.438;2022-08-19T07:57:45;31.83;;;13.23;;
26080;SDS011;13991;51.174;4.438;2022-08-19T08:00:14;41.07;;;12.90;;
26080;SDS011;13991;51.174;4.438;2022-08-19T08:02:43;27.40;;;12.67;;
26080;SDS011;13991;51.174;4.438;2022-08-19T08:05:11;29.67;;;11.90;;
26080;SDS011;13991;51.174;4.438;2022-08-19T08:07:58;30.33;;;13.70;;
26080;SDS011;13991;51.174;4.438;2022-08-19T08:10:43;29.30;;;13.23;;
26080;SDS011;13991;51.174;4.438;2022-08-19T08:13:08;37.70;;;12.53;;
26080;SDS011;13991;51.174;4.438;2022-08-19T08:15:39;27.27;;;11.87;;
26080;SDS011;13991;51.174;4.438;2022-08-19T08:18:23;28.90;;;12.33;;
26080;SDS011;13991;51.174;4.438;2022-08-19T08:20:49;31.33;;;11.97;;
26080;SDS011;13991;51.174;4.438;2022-08-19T08:23:15;28.70;;;12.40;;
26080;SDS011;13991;51.174;4.438;2022-08-19T08:25:47;27.87;;;12.30;;
26080;SDS011;13991;51.174;4.438;2022-08-19T08:28:14;22.63;;;10.87;;
26080;SDS011;13991;51.174;4.438;2022-08-19T08:30:40;26.30;;;11.23;;
26080;SDS011;13991;51.174;4.438;2022-08-19T08:33:08;21.73;;;10.33;;
26080;SDS011;13991;51.174;4.438;2022-08-19T08:35:35;26.27;;;10.97;;
26080;SDS011;13991;51.174;4.438;2022-08-19T08:38:02;29.53;;;10.87;;
26080;SDS011;13991;51.174;4.438;2022-08-19T08:40:49;28.83;;;11.40;;
26080;SDS011;13991;51.174;4.438;2022-08-19T08:43:33;21.97;;;10.33;;
26080;SDS011;13991;51.174;4.438;2022-08-19T08:46:12;24.33;;;10.17;;
26080;SDS011;13991;51.174;4.438;2022-08-19T08:51:27;28.47;;;10.00;;
26080;SDS011;13991;51.174;4.438;2022-08-19T08:54:01;34.80;;;10.87;;
26080;SDS011;13991;51.174;4.438;2022-08-19T08:56:30;20.40;;;10.50;;
26080;SDS011;13991;51.174;4.438;2022-08-19T08:59:03;24.67;;;10.33;;
26080;SDS011;13991;51.174;4.438;2022-08-19T09:01:34;22.03;;;9.83;;
26080;SDS011;13991;51.174;4.438;2022-08-19T09:04:03;34.30;;;9.37;;
26080;SDS011;13991;51.174;4.438;2022-08-19T09:06:37;22.43;;;9.67;;
26080;SDS011;13991;51.174;4.438;2022-08-19T09:15:04;20.40;;;8.33;;
26080;SDS011;13991;51.174;4.438;2022-08-19T09:17:32;20.43;;;8.33;;
26080;SDS011;13991;51.174;4.438;2022-08-19T09:20:03;23.40;;;8.57;;
26080;SDS011;13991;51.174;4.438;2022-08-19T09:22:39;27.80;;;9.03;;
26080;SDS011;13991;51.174;4.438;2022-08-19T09:25:09;27.20;;;7.83;;
26080;SDS011;13991;51.174;4.438;2022-08-19T09:27:37;24.37;;;8.77;;
26080;SDS011;13991;51.174;4.438;2022-08-19T09:30:07;24.47;;;9.73;;
26080;SDS011;13991;51.174;4.438;2022-08-19T09:32:37;26.07;;;9.10;;
26080;SDS011;13991;51.174;4.438;2022-08-19T09:35:04;15.07;;;9.03;;
26080;SDS011;13991;51.174;4.438;2022-08-19T09:37:32;20.53;;;9.00;;
26080;SDS011;13991;51.174;4.438;2022-08-19T09:39:58;24.77;;;10.10;;
26080;SDS011;13991;51.174;4.438;2022-08-19T09:42:30;22.00;;;10.23;;
26080;SDS011;13991;51.174;4.438;2022-08-19T09:44:56;28.03;;;11.20;;
26080;SDS011;13991;51.174;4.438;2022-08-19T09:47:21;27.20;;;12.37;;
26080;SDS011;13991;51.174;4.438;2022-08-19T09:49:48;31.83;;;12.93;;
26080;SDS011;13991;51.174;4.438;2022-08-19T09:52:13;35.47;;;14.80;;
26080;SDS011;13991;51.174;4.438;2022-08-19T09:54:43;27.00;;;12.33;;
26080;SDS011;13991;51.174;4.438;2022-08-19T09:57:10;28.50;;;12.17;;
26080;SDS011;13991;51.174;4.438;2022-08-19T09:59:38;29.87;;;13.40;;
26080;SDS011;13991;51.174;4.438;2022-08-19T10:02:09;31.47;;;11.70;;
26080;SDS011;13991;51.174;4.438;2022-08-19T10:04:38;23.30;;;11.07;;
26080;SDS011;13991;51.174;4.438;2022-08-19T10:07:42;26.67;;;11.87;;
26080;SDS011;13991;51.174;4.438;2022-08-19T10:10:08;37.67;;;12.67;;
26080;SDS011;13991;51.174;4.438;2022-08-19T10:12:35;35.33;;;11.87;;
26080;SDS011;13991;51.174;4.438;2022-08-19T10:15:01;33.33;;;11.53;;
26080;SDS011;13991;51.174;4.438;2022-08-19T10:17:32;31.33;;;12.00;;
26080;SDS011;13991;51.174;4.438;2022-08-19T10:20:08;29.97;;;12.77;;
26080;SDS011;13991;51.174;4.438;2022-08-19T10:22:35;28.97;;;11.60;;
26080;SDS011;13991;51.174;4.438;2022-08-19T10:25:02;21.07;;;10.00;;
26080;SDS011;13991;51.174;4.438;2022-08-19T10:27:29;30.73;;;11.17;;
26080;SDS011;13991;51.174;4.438;2022-08-19T10:29:56;26.67;;;10.63;;
26080;SDS011;13991;51.174;4.438;2022-08-19T10:32:22;20.83;;;9.50;;
26080;SDS011;13991;51.174;4.438;2022-08-19T10:34:48;29.03;;;10.80;;
26080;SDS011;13991;51.174;4.438;2022-08-19T10:37:16;19.87;;;9.50;;
26080;SDS011;13991;51.174;4.438;2022-08-19T10:39:45;36.43;;;9.47;;
26080;SDS011;13991;51.174;4.438;2022-08-19T10:42:14;27.23;;;9.83;;
26080;SDS011;13991;51.174;4.438;2022-08-19T10:44:42;20.93;;;9.67;;
26080;SDS011;13991;51.174;4.438;2022-08-19T10:47:11;26.17;;;10.43;;
26080;SDS011;13991;51.174;4.438;2022-08-19T10:49:38;23.87;;;9.53;;
26080;SDS011;13991;51.174;4.438;2022-08-19T10:52:32;28.87;;;9.70;;
26080;SDS011;13991;51.174;4.438;2022-08-19T10:55:03;21.70;;;9.23;;
26080;SDS011;13991;51.174;4.438;2022-08-19T10:57:48;26.37;;;10.20;;
26080;SDS011;13991;51.174;4.438;2022-08-19T11:00:15;27.47;;;10.50;;
26080;SDS011;13991;51.174;4.438;2022-08-19T11:02:42;28.33;;;11.17;;
26080;SDS011;13991;51.174;4.438;2022-08-19T11:05:09;26.07;;;12.30;;
26080;SDS011;13991;51.174;4.438;2022-08-19T11:07:36;30.30;;;12.60;;
26080;SDS011;13991;51.174;4.438;2022-08-19T11:10:09;22.57;;;11.87;;
26080;SDS011;13991;51.174;4.438;2022-08-19T11:12:36;27.73;;;11.80;;
26080;SDS011;13991;51.174;4.438;2022-08-19T11:15:09;29.00;;;10.67;;
26080;SDS011;13991;51.174;4.438;2022-08-19T11:17:39;25.37;;;11.73;;
26080;SDS011;13991;51.174;4.438;2022-08-19T11:20:08;30.13;;;10.53;;
26080;SDS011;13991;51.174;4.438;2022-08-19T11:22:38;19.37;;;9.20;;
26080;SDS011;13991;51.174;4.438;2022-08-19T11:25:05;25.23;;;9.50;;
26080;SDS011;13991;51.174;4.438;2022-08-19T11:27:32;23.07;;;9.20;;
26080;SDS011;13991;51.174;4.438;2022-08-19T11:30:01;26.00;;;9.83;;
26080;SDS011;13991;51.174;4.438;2022-08-19T11:32:32;25.47;;;9.23;;
26080;SDS011;13991;51.174;4.438;2022-08-19T11:34:58;20.23;;;9.40;;
26080;SDS011;13991;51.174;4.438;2022-08-19T11:37:24;22.50;;;8.83;;
26080;SDS011;13991;51.174;4.438;2022-08-19T11:39:51;20.43;;;9.30;;
26080;SDS011;13991;51.174;4.438;2022-08-19T11:42:19;17.77;;;8.53;;
26080;SDS011;13991;51.174;4.438;2022-08-19T11:45:03;17.73;;;7.33;;
26080;SDS011;13991;51.174;4.438;2022-08-19T11:47:30;21.30;;;7.10;;
26080;SDS011;13991;51.174;4.438;2022-08-19T11:49:55;21.03;;;7.43;;
26080;SDS011;13991;51.174;4.438;2022-08-19T11:52:22;11.60;;;6.37;;
26080;SDS011;13991;51.174;4.438;2022-08-19T11:54:48;17.43;;;7.53;;
26080;SDS011;13991;51.174;4.438;2022-08-19T11:57:15;17.00;;;5.97;;
26080;SDS011;13991;51.174;4.438;2022-08-19T11:59:42;15.50;;;6.73;;
26080;SDS011;13991;51.174;4.438;2022-08-19T12:02:14;16.17;;;6.30;;
26080;SDS011;13991;51.174;4.438;2022-08-19T12:04:40;13.38;;;6.55;;
26080;SDS011;13991;51.174;4.438;2022-08-19T12:07:08;13.32;;;6.20;;
26080;SDS011;13991;51.174;4.438;2022-08-19T12:09:34;8.73;;;5.43;;
26080;SDS011;13991;51.174;4.438;2022-08-19T12:12:07;14.07;;;5.38;;
26080;SDS011;13991;51.174;4.438;2022-08-19T12:14:34;19.55;;;4.63;;
26080;SDS011;13991;51.174;4.438;2022-08-19T12:17:00;7.10;;;4.28;;
26080;SDS011;13991;51.174;4.438;2022-08-19T12:19:31;11.27;;;4.35;;
26080;SDS011;13991;51.174;4.438;2022-08-19T12:22:00;10.05;;;4.28;;
26080;SDS011;13991;51.174;4.438;2022-08-19T12:24:29;12.20;;;4.43;;
26080;SDS011;13991;51.174;4.438;2022-08-19T12:26:59;9.73;;;2.88;;
26080;SDS011;13991;51.174;4.438;2022-08-19T12:29:26;9.13;;;3.25;;
26080;SDS011;13991;51.174;4.438;2022-08-19T12:31:58;6.38;;;2.67;;
26080;SDS011;13991;51.174;4.438;2022-08-19T12:34:30;5.72;;;2.50;;
26080;SDS011;13991;51.174;4.438;2022-08-19T12:37:03;3.85;;;2.40;;
26080;SDS011;13991;51.174;4.438;2022-08-19T12:39:43;6.05;;;2.63;;
26080;SDS011;13991;51.174;4.438;2022-08-19T12:42:13;15.57;;;2.67;;
26080;SDS011;13991;51.174;4.438;2022-08-19T12:44:41;10.40;;;2.92;;
26080;SDS011;13991;51.174;4.438;2022-08-19T12:47:11;7.07;;;2.72;;
26080;SDS011;13991;51.174;4.438;2022-08-19T12:49:43;8.20;;;2.65;;
26080;SDS011;13991;51.174;4.438;2022-08-19T12:52:09;11.60;;;3.17;;
26080;SDS011;13991;51.174;4.438;2022-08-19T12:54:41;13.18;;;2.45;;
26080;SDS011;13991;51.174;4.438;2022-08-19T12:57:10;7.00;;;2.40;;
26080;SDS011;13991;51.174;4.438;2022-08-19T12:59:44;5.85;;;2.40;;
26080;SDS011;13991;51.174;4.438;2022-08-19T13:02:16;6.10;;;1.90;;
26080;SDS011;13991;51.174;4.438;2022-08-19T13:04:41;9.88;;;2.15;;
26080;SDS011;13991;51.174;4.438;2022-08-19T13:07:28;8.45;;;2.22;;
26080;SDS011;13991;51.174;4.438;2022-08-19T13:09:56;6.32;;;2.38;;
26080;SDS011;13991;51.174;4.438;2022-08-19T13:12:23;11.45;;;2.55;;
26080;SDS011;13991;51.174;4.438;2022-08-19T13:14:52;5.93;;;2.00;;
26080;SDS011;13991;51.174;4.438;2022-08-19T13:17:20;9.93;;;1.70;;
26080;SDS011;13991;51.174;4.438;2022-08-19T13:19:45;11.30;;;1.70;;
26080;SDS011;13991;51.174;4.438;2022-08-19T13:22:15;9.57;;;1.98;;
26080;SDS011;13991;51.174;4.438;2022-08-19T13:24:47;5.80;;;1.83;;
26080;SDS011;13991;51.174;4.438;2022-08-19T13:27:19;6.72;;;1.70;;
26080;SDS011;13991;51.174;4.438;2022-08-19T13:29:45;8.30;;;2.00;;
26080;SDS011;13991;51.174;4.438;2022-08-19T13:32:41;3.47;;;1.80;;
26080;SDS011;13991;51.174;4.438;2022-08-19T13:35:26;6.43;;;1.65;;
26080;SDS011;13991;51.174;4.438;2022-08-19T13:37:51;9.07;;;1.55;;
26080;SDS011;13991;51.174;4.438;2022-08-19T13:40:18;5.75;;;1.67;;
26080;SDS011;13991;51.174;4.438;2022-08-19T13:42:49;4.63;;;1.35;;
26080;SDS011;13991;51.174;4.438;2022-08-19T13:45:18;6.13;;;1.92;;
26080;SDS011;13991;51.174;4.438;2022-08-19T13:47:47;5.65;;;2.03;;
26080;SDS011;13991;51.174;4.438;2022-08-19T13:50:22;7.82;;;1.80;;
26080;SDS011;13991;51.174;4.438;2022-08-19T13:52:56;5.10;;;2.00;;
26080;SDS011;13991;51.174;4.438;2022-08-19T13:55:22;5.15;;;1.20;;
26080;SDS011;13991;51.174;4.438;2022-08-19T13:57:55;2.25;;;1.27;;
26080;SDS011;13991;51.174;4.438;2022-08-19T14:00:24;4.65;;;2.03;;
26080;SDS011;13991;51.174;4.438;2022-08-19T14:02:52;7.65;;;3.53;;
26080;SDS011;13991;51.174;4.438;2022-08-19T14:05:26;6.90;;;4.20;;
26080;SDS011;13991;51.174;4.438;2022-08-19T14:07:53;7.90;;;3.22;;
26080;SDS011;13991;51.174;4.438;2022-08-19T14:10:20;6.38;;;3.30;;
26080;SDS011;13991;51.174;4.438;2022-08-19T14:12:51;5.90;;;3.40;;
26080;SDS011;13991;51.174;4.438;2022-08-19T14:15:23;6.32;;;3.10;;
26080;SDS011;13991;51.174;4.438;2022-08-19T14:17:50;5.30;;;3.03;;
26080;SDS011;13991;51.174;4.438;2022-08-19T14:20:19;4.35;;;3.00;;
26080;SDS011;13991;51.174;4.438;2022-08-19T14:22:46;6.60;;;3.10;;
26080;SDS011;13991;51.174;4.438;2022-08-19T14:25:19;11.65;;;2.83;;
26080;SDS011;13991;51.174;4.438;2022-08-19T14:27:51;7.63;;;2.15;;
26080;SDS011;13991;51.174;4.438;2022-08-19T14:30:22;6.55;;;2.08;;
26080;SDS011;13991;51.174;4.438;2022-08-19T14:32:59;26.90;;;2.42;;
26080;SDS011;13991;51.174;4.438;2022-08-19T14:35:32;4.50;;;1.85;;
26080;SDS011;13991;51.174;4.438;2022-08-19T14:38:02;5.38;;;1.83;;
26080;SDS011;13991;51.174;4.438;2022-08-19T14:40:35;7.88;;;1.90;;
26080;SDS011;13991;51.174;4.438;2022-08-19T14:43:08;5.45;;;1.67;;
26080;SDS011;13991;51.174;4.438;2022-08-19T14:45:36;6.47;;;1.67;;
26080;SDS011;13991;51.174;4.438;2022-08-19T14:48:06;9.02;;;1.55;;